Adrian, North Dakota
Current Conditions -  °F | °C
As of 6:24 AM on Wednesday 26 Nov 2014 (Local Time) from KJMS Reporting Station
Overcast Overcast  
Wind Chill: -26°   Ceiling: 10000
Heat Index: -17°   Visibility: 8mi
Dew Point: -19°   Wind: 12mph
Humidity: 80%   Direction: 340°NNW
Pressure: 30.28"   Gusts: NA
Location:  46.6526°N, 98.6214°W
Report Text: KJMS 261224Z AUTO 34010KT 8SM FEW005 OVC100 M17/M19 A3028 RMK AO2 T11671194
Loading
Personal Weather Stations






























Interactive Weather Map New forecast layout! Learn more

10-Day Weather Forecast

Advertisements
Track Severe Weather on mobile